Beaverton, OR (97006)

10:04 PM PST on January 21, 2017 (GMT -0800)
SW 181st / Jay St | | Change Station

Elev 200 ft 45.51 °N, 122.86 °W | Updated 6 seconds ago

Overcast
Overcast
39.6 °F
Feels Like 40 °F
N
0.0
Wind Variable Wind from South
Gusts 0.0 mph

Today
High -- | Low -- °F
--% Chance of Precip.
Yesterday
High -- | Low -- °F
Precip. -- in
Pressure 29.59 in
Visibility 10.0 miles
Clouds Clear
Windchill 40 °F
Dew Point 39 °F
Humidity 97%
Rainfall 0.29 in
Snow Depth Not available.
7:43 AM 5:02 PM
Waning Crescent, 29% visible
METAR KHIO 220553Z AUTO 12005KT 10SM CLR 05/04 A2958 RMK AO2 SLP018 60010 T00500039 10078 20050 50007
Pressure 29.59 in
Visibility 10.0 miles
Clouds Clear
Windchill 40 °F
Dew Point 39 °F
Humidity 97%
Rainfall 0.29 in
Snow Depth Not available.
7:43 AM 5:02 PM
Waning Crescent, 29% visible
METAR KHIO 220553Z AUTO 12005KT 10SM CLR 05/04 A2958 RMK AO2 SLP018 60010 T00500039 10078 20050 50007

Get Your Daily Forecast Email!

Thanks for signing up!

Be on the lookout for a verification email in your inbox.

You'll start receiving the daily forecast at 8 AM.

×

10-Day Weather Forecast

Almanac

Astronomy

Jan. 21, 2017 Rise Set
Actual Time
Civil Twilight
Nautical Twilight
Astronomical Twilight
Moon
Length of Visible Light
Length of Day
Tomorrow will be .
, % of the Moon is Illuminated

Today's Extremes

State Highs State Lows

Community

WunderPhotos

Upload Photos

1,962,540 photos uploaded!

WunderBlog® & News

Nearby

Air Quality

  Air Quality AQ Index Pollutant
Not available.

Snow Depth

Station Depth Elevation

Earthquake Activity

City Distance Mag. Time & Date
Minimum magnitude displayed is 2.5.

Coastal Water Temperatures

Place Temperature

Stations

Nearby Weather Stations

Station Location Temp. Windchill Dew Point Humidity Wind Precip. Elev Updated Type
                   

Watches & Warnings

Small Craft for Rough Bar Advisory
Issued: 8:44 PM PST Jan. 21, 2017 – National Weather Service

... Small Craft Advisory for rough bar now in effect until 6 am
PST Monday...

* in the Main Channel...

* general seas... 16 to 18 feet late Saturday night through
Sunday.

* First Ebb... seas temporarily building to 22 feet with breakers
during the Ebb around 1215 am Sunday.

* Second Ebb... seas temporarily building to 20 feet with breakers
during the Ebb around 1 PM Sunday.

Precautionary/preparedness actions...

A Small Craft Advisory for rough bar means that wave conditions
are expected to be hazardous to small craft in or near Harbor
entrances.